createdAt,value
2022-08-05T00:01:35.753Z,27.70
2022-08-05T00:06:40.074Z,27.50
2022-08-05T00:11:48.481Z,27.40
2022-08-05T00:16:54.238Z,27.20
2022-08-05T00:21:57.396Z,27.20
2022-08-05T00:27:01.168Z,27.10
2022-08-05T00:32:15.340Z,27.20
2022-08-05T00:37:19.051Z,27.20
2022-08-05T00:42:32.522Z,27.20
2022-08-05T00:47:53.309Z,27.10
2022-08-05T00:53:01.036Z,27.10
2022-08-05T00:58:04.952Z,27.10
2022-08-05T01:03:10.390Z,27.20
2022-08-05T01:08:41.409Z,27.20
2022-08-05T01:13:59.119Z,27.20
2022-08-05T01:19:14.213Z,27.20
2022-08-05T01:24:34.332Z,27.10
2022-08-05T01:29:46.658Z,27.10
2022-08-05T01:34:55.722Z,27.10
2022-08-05T01:40:00.770Z,27.00
2022-08-05T01:45:08.027Z,27.00
2022-08-05T01:50:17.304Z,26.90
2022-08-05T01:55:23.577Z,26.90
2022-08-05T02:00:31.161Z,26.90
2022-08-05T02:05:37.763Z,26.80
2022-08-05T02:10:51.441Z,26.70
2022-08-05T02:16:03.803Z,26.70
2022-08-05T02:21:15.042Z,26.60
2022-08-05T02:26:24.398Z,26.50
2022-08-05T02:31:35.019Z,26.40
2022-08-05T02:36:42.474Z,26.20
2022-08-05T02:42:00.613Z,26.00
2022-08-05T02:47:09.054Z,25.80
2022-08-05T02:52:25.845Z,25.70
2022-08-05T02:58:20.021Z,25.60
2022-08-05T03:03:00.061Z,25.60
2022-08-05T03:08:08.594Z,25.50
2022-08-05T03:13:16.789Z,25.50
2022-08-05T03:18:29.899Z,25.40
2022-08-05T03:23:34.349Z,25.40
2022-08-05T03:28:38.489Z,25.40
2022-08-05T03:33:52.911Z,25.30
2022-08-05T03:38:56.485Z,25.20
2022-08-05T03:44:11.540Z,25.20
2022-08-05T03:49:16.489Z,25.10
2022-08-05T03:55:49.906Z,25.10
2022-08-05T03:59:55.700Z,25.10
2022-08-05T04:05:01.321Z,25.00
2022-08-05T04:10:04.946Z,24.90
2022-08-05T04:15:09.441Z,24.80
2022-08-05T04:20:22.146Z,24.60
2022-08-05T04:25:57.956Z,24.40
2022-08-05T04:30:50.441Z,24.30
2022-08-05T04:36:11.094Z,24.20
2022-08-05T04:41:19.044Z,24.10
2022-08-05T04:46:28.486Z,24.00
2022-08-05T04:51:33.245Z,24.00
2022-08-05T04:56:38.074Z,24.00
2022-08-05T05:02:35.688Z,24.00
2022-08-05T05:07:09.476Z,24.00
2022-08-05T05:12:12.809Z,24.10
2022-08-05T05:17:19.859Z,24.20
2022-08-05T05:22:28.322Z,24.20
2022-08-05T05:27:44.838Z,24.30
2022-08-05T05:32:49.270Z,24.30
2022-08-05T05:37:59.479Z,24.40
2022-08-05T05:43:04.681Z,24.50
2022-08-05T05:48:11.746Z,24.60
2022-08-05T05:53:22.788Z,24.70
2022-08-05T05:58:31.856Z,24.90
2022-08-05T06:03:53.875Z,25.10
2022-08-05T06:09:04.222Z,25.30
2022-08-05T06:14:07.468Z,25.60
2022-08-05T06:19:10.616Z,25.80
2022-08-05T06:24:17.080Z,26.00
2022-08-05T06:29:52.023Z,26.30
2022-08-05T06:34:53.500Z,26.50
2022-08-05T06:40:01.055Z,26.70
2022-08-05T06:45:08.786Z,26.90
2022-08-05T06:50:12.208Z,27.10
2022-08-05T06:55:22.527Z,27.30
2022-08-05T07:00:26.125Z,27.30
2022-08-05T07:05:37.160Z,27.40
2022-08-05T07:10:53.339Z,27.50
2022-08-05T07:17:56.433Z,27.60
2022-08-05T07:21:59.300Z,27.60
2022-08-05T07:27:02.959Z,27.70
2022-08-05T07:32:07.152Z,27.80
2022-08-05T07:37:11.540Z,27.80
2022-08-05T07:42:16.505Z,27.90
2022-08-05T07:47:42.113Z,28.00
2022-08-05T07:52:46.644Z,28.10
2022-08-05T07:58:02.195Z,28.20
2022-08-05T08:03:14.037Z,28.30
2022-08-05T08:08:19.945Z,28.40
2022-08-05T08:13:29.300Z,28.50
2022-08-05T08:18:32.696Z,28.60
2022-08-05T08:24:03.053Z,28.80
2022-08-05T08:29:14.166Z,29.00
2022-08-05T08:34:30.545Z,29.20
2022-08-05T08:39:37.588Z,29.40
2022-08-05T08:45:16.942Z,29.60
2022-08-05T08:50:30.155Z,29.90
2022-08-05T08:56:03.731Z,30.10
2022-08-05T09:00:56.874Z,30.40
2022-08-05T09:06:08.923Z,30.70
2022-08-05T09:11:15.865Z,30.90
2022-08-05T09:16:21.072Z,31.10
2022-08-05T09:22:22.813Z,31.20
2022-08-05T09:26:57.394Z,31.40
2022-08-05T09:32:41.270Z,31.50
2022-08-05T09:38:12.375Z,31.50
2022-08-05T09:42:54.531Z,31.60
2022-08-05T09:48:00.663Z,31.80
2022-08-05T09:53:04.191Z,31.90
2022-08-05T09:58:12.344Z,32.00
2022-08-05T10:03:16.966Z,32.20
2022-08-05T10:08:37.261Z,32.20
2022-08-05T10:13:46.272Z,32.30
2022-08-05T10:18:52.638Z,32.30
2022-08-05T10:23:59.482Z,32.40
2022-08-05T10:29:03.679Z,32.50
2022-08-05T10:34:09.460Z,32.60
2022-08-05T10:39:24.502Z,32.90
2022-08-05T10:44:30.551Z,33.10
2022-08-05T10:49:48.709Z,33.30
2022-08-05T10:55:06.309Z,33.40
2022-08-05T11:00:20.181Z,33.50
2022-08-05T11:05:29.080Z,33.60
2022-08-05T11:10:37.058Z,33.70
2022-08-05T11:15:59.455Z,33.80
2022-08-05T11:21:32.240Z,33.90
2022-08-05T11:27:51.491Z,33.90
2022-08-05T11:33:43.782Z,34.00
2022-08-05T11:38:57.830Z,33.90
2022-08-05T11:44:07.224Z,33.90
2022-08-05T11:49:14.818Z,34.00
2022-08-05T11:54:33.176Z,34.10
2022-08-05T11:59:41.210Z,34.20
2022-08-05T12:04:59.178Z,34.20
2022-08-05T12:10:09.110Z,34.20
2022-08-05T12:15:35.892Z,34.30
2022-08-05T12:20:41.767Z,34.30
2022-08-05T12:25:53.800Z,34.50
2022-08-05T12:31:02.278Z,34.60
2022-08-05T12:36:08.390Z,34.70
2022-08-05T12:41:16.310Z,34.90
2022-08-05T12:46:28.921Z,34.90
2022-08-05T12:52:14.292Z,35.00
2022-08-05T12:57:00.017Z,35.00
2022-08-05T13:02:07.835Z,35.10
2022-08-05T13:07:16.055Z,35.10
2022-08-05T13:12:23.150Z,35.30
2022-08-05T13:17:42.281Z,35.30
2022-08-05T13:22:50.336Z,35.40
2022-08-05T13:27:57.463Z,35.50
2022-08-05T13:33:01.518Z,35.50
2022-08-05T13:38:05.951Z,35.50
2022-08-05T13:43:12.138Z,35.50
2022-08-05T13:48:58.484Z,35.60
2022-08-05T13:53:48.188Z,35.70
2022-08-05T13:58:53.902Z,35.70
2022-08-05T14:04:14.711Z,35.80
2022-08-05T14:09:18.319Z,35.80
2022-08-05T14:14:30.826Z,35.70
2022-08-05T14:19:54.609Z,35.60
2022-08-05T14:24:59.289Z,35.50
2022-08-05T14:30:04.286Z,35.50
2022-08-05T14:35:11.350Z,35.60
2022-08-05T14:40:16.946Z,35.60
2022-08-05T14:45:21.807Z,35.60
2022-08-05T14:50:26.303Z,35.60
2022-08-05T14:55:39.060Z,35.70
2022-08-05T15:00:58.212Z,35.70
2022-08-05T15:06:13.254Z,35.80
2022-08-05T15:11:18.899Z,35.80
2022-08-05T15:16:24.060Z,35.80
2022-08-05T15:21:27.378Z,35.80
2022-08-05T15:26:33.865Z,35.80
2022-08-05T15:31:38.376Z,35.90
2022-08-05T15:36:41.764Z,36.00
2022-08-05T15:41:57.549Z,36.00
2022-08-05T15:47:04.360Z,36.10
2022-08-05T15:52:16.165Z,36.10
2022-08-05T15:57:20.920Z,36.10
2022-08-05T16:02:27.659Z,36.10
2022-08-05T16:07:32.491Z,36.10
2022-08-05T16:12:35.708Z,36.20
2022-08-05T16:17:42.210Z,36.20
2022-08-05T16:22:45.476Z,36.10
2022-08-05T16:28:02.121Z,36.20
2022-08-05T16:33:10.312Z,36.20
2022-08-05T16:38:18.530Z,36.20
2022-08-05T16:43:30.254Z,36.10
2022-08-05T16:48:35.594Z,36.10
2022-08-05T16:54:06.074Z,36.00
2022-08-05T16:59:08.141Z,36.00
2022-08-05T17:04:13.281Z,35.90
2022-08-05T17:09:18.333Z,35.80
2022-08-05T17:14:22.337Z,35.70
2022-08-05T17:19:43.840Z,35.60
2022-08-05T17:24:57.494Z,35.50
2022-08-05T17:30:02.672Z,35.50
2022-08-05T17:35:08.702Z,35.40
2022-08-05T17:40:17.868Z,35.40
2022-08-05T17:45:22.457Z,35.40
2022-08-05T17:50:30.837Z,35.30
2022-08-05T17:55:38.748Z,35.30
2022-08-05T18:00:47.572Z,35.20
2022-08-05T18:06:01.926Z,35.00
2022-08-05T18:11:05.489Z,34.90
2022-08-05T18:16:09.637Z,34.90
2022-08-05T18:21:19.854Z,34.90
2022-08-05T18:26:29.155Z,34.80
2022-08-05T18:31:35.451Z,34.70
2022-08-05T18:36:41.229Z,34.60
2022-08-05T18:41:58.283Z,34.50
2022-08-05T18:47:05.038Z,34.40
2022-08-05T18:52:32.894Z,34.30
2022-08-05T18:57:50.053Z,34.20
2022-08-05T19:02:56.815Z,34.10
2022-08-05T19:08:02.858Z,34.00
2022-08-05T19:13:06.102Z,33.80
2022-08-05T19:18:22.420Z,33.60
2022-08-05T19:24:08.156Z,33.50
2022-08-05T19:28:52.033Z,33.30
2022-08-05T19:33:56.238Z,33.10
2022-08-05T19:39:02.007Z,33.00
2022-08-05T19:44:13.268Z,33.00
2022-08-05T19:49:18.002Z,32.80
2022-08-05T19:54:29.611Z,32.80
2022-08-05T19:59:54.799Z,32.70
2022-08-05T20:04:59.650Z,32.60
2022-08-05T20:10:11.589Z,32.50
2022-08-05T20:15:48.231Z,32.40
2022-08-05T20:20:44.639Z,32.30
2022-08-05T20:25:49.450Z,32.10
2022-08-05T20:30:55.697Z,32.10
2022-08-05T20:35:59.267Z,32.00
2022-08-05T20:41:04.461Z,31.80
2022-08-05T20:46:18.670Z,31.50
2022-08-05T20:51:28.779Z,31.10
2022-08-05T20:56:41.882Z,30.60
2022-08-05T21:01:45.815Z,30.30
2022-08-05T21:06:49.009Z,29.80
2022-08-05T21:12:08.101Z,29.40
2022-08-05T21:17:14.584Z,28.90
2022-08-05T21:22:21.819Z,28.50
2022-08-05T21:27:28.229Z,28.20
2022-08-05T21:32:42.208Z,28.00
2022-08-05T21:37:52.698Z,27.90
2022-08-05T21:42:59.017Z,27.80
2022-08-05T21:48:06.246Z,27.70
2022-08-05T21:53:17.567Z,27.40
2022-08-05T21:58:28.841Z,27.20
2022-08-05T22:03:52.048Z,27.10
2022-08-05T22:08:56.408Z,27.00
2022-08-05T22:14:19.803Z,26.80
2022-08-05T22:20:03.484Z,26.60
2022-08-05T22:25:05.910Z,26.40
2022-08-05T22:30:22.569Z,26.40
2022-08-05T22:35:25.979Z,26.40
2022-08-05T22:40:34.404Z,26.40
2022-08-05T22:45:39.106Z,26.50
2022-08-05T22:50:46.109Z,26.50
2022-08-05T22:55:59.425Z,26.40
2022-08-05T23:01:04.381Z,26.40
2022-08-05T23:06:09.761Z,26.30
2022-08-05T23:11:13.464Z,26.20
2022-08-05T23:16:25.992Z,26.00
2022-08-05T23:21:42.805Z,25.90
2022-08-05T23:26:51.492Z,25.70
2022-08-05T23:31:56.010Z,25.60
2022-08-05T23:36:59.654Z,25.50
2022-08-05T23:42:03.706Z,25.50
2022-08-05T23:47:15.266Z,25.60
2022-08-05T23:52:29.296Z,25.60
2022-08-05T23:57:34.809Z,25.70
